Aviation Digital Data Service (ADDS)

Output produced by METARs form (2215 UTC 21 May 2022)
found at http://www.aviationweather.gov/metar/data/
 
DNAA 212000Z 24003KT 9999 TS FEW011 FEW020CB 27/23 Q1015 NOSIG
TAF DNAA 211700Z 2118/2224 32010KT 9999 SCT012 FEW020CB 
     TEMPO 2118/2122 TS 
     PROB30 05016G35KT 5000 TSRA BKN009 FEW018CB 
     BECMG 2122/2124 15005KT 
     BECMG 2208/2210 24010KT BKN012 
     TEMPO 2216/2222 TS FEW020CB 
     BECMG 2222/2124 15005KT
       
DNAK 211900Z 00000KT 8000 BKN008 23/22 Q1015
TAF DNAK 211700Z 2118/2224 VRB02KT 8000 SCT009 
     TEMPO 2204/2207 3000 BR 
     BECMG 2208/2210 250140KT BKN013 
     TEMPO 2213/2218 SCT013 FEW020CB 
     BECMG 2218/2220 VRB02KT SCT011
       
TAF DNBE 211700Z 2118/2224 VRB02KT 8000 SCT009 
     TEMPO 2205/2207 3000 BR 
     BECMG 2208/2210 21010KT BKN012 
     TEMPO 2212/2218 SCT012 FEW020CB 
     BECMG 2218/2220 VRB02KT SCT010
       
DNIB 211900Z 26008KT 9999 BKN008 24/22 Q1015
TAF DNIB 211700Z 2118/2224 VRB02KT 8000 SCT009 
     TEMPO 2205/2207 5000 BR 
     BECMG 2208/2210 24010KT BKN013 
     TEMPO 2213/2218 SCT013 FEW020CB 
     BECMG 2218/2220 VRB02KT SCT011
       
DNIL 212000Z 21004KT 9999 FEW010 25/23 Q1015
TAF DNIL 211100Z 2012/2218 19010KT 9999 FEW011 
     TEMPO 2115/2121 TS FEW020CB 
     TEMPO 2202/2206 VRB02KT 
     BECMG 2208/2210 BKN011 
     TEMPO 2215/2218 TS SCT013 FEW020CB
       
DNJO 212000Z 28006KT 9999 TS SCT007 FEW018CB 24/21 Q1020
TAF DNJO 211100Z 2112/2218 26010KT 9999 SCT008 
     PROB30 
     TEMPO 2115/2119 TS FEW017CB 
     BECMG 2119/2122 14005KT 
     TEMPO 2204/2208 5000 BR BKN004 
     BECMG 2208/2211 25010KT BKN009 
     PROB30 
     TEMPO 2214/2218 TS SCT009 FEW017CB
       
TAF DNKA 211100Z 2112/2218 23010KT 9999 SCT011 
     TEMPO 2116/2121 TS FEW020CB 
     PROB30 
     TEMPO 2117/2120 08015KT 5000 -TSRA BKN008 FEW018CB 
     BECMG 2121/2123 15005KT 
     BECMG 2208/2211 24010KT BKN013 
     PROB30 
     TEMPO 2216/2218 TS SCT011 FEW020CB
       
DNKN 212200Z 24008KT 8000 NSC 29/12 Q1015 NOSIG
TAF DNKN 211700Z 2118/2224 VRB02KT 7000 NSW NSC 
     TEMPO 22007KT 2207/2213 24010KT 5000 HZ 
     BECMG 2212/2214 06008KT
       
DNMM 212100Z 30003KT 3500 -TSRA SCT009 FEW019CB 25/24 Q1015 NOSIG
TAF DNMM 211100Z 2112/2218 23010KT 9999 TS BKN013 FEW020CB 
     TEMPO 2112/2115 5000 -TSRA BKN010 FEW019CB 
     BECMG 2115/2117 NSW SCT011 
     BECMG 2120/2122 VRB02KT 
     BECMG 2208/2210 BKN013 
     TEMPO 2213/2218 SCT013 FEW020CB
       
TAF DNMA 211700Z 2118/2224 08010KT 7000 NSW NSC 
     TEMPO 2206/2212 3000 HZ
       
DNMN 212000Z 20002KT CAVOK 28/24 Q1013
DNPO 212000Z 00000KT 8000 SCT008 26/25 Q1013 NOSIG